Time;durP1;ratioP1;P1;durP2;ratioP2;P2;SDS_P1;SDS_P2;PMS_P1;PMS_P2;Temp;Humidity;BMP_temperature;BMP_pressure;BME280_temperature;BME280_humidity;BME280_pressure;Samples;Min_cycle;Max_cycle;Signal;HPM_P1;HPM_P2
2023/07/09 00:02:27;;;;;;;;;;;;;;;21.41;100.00;99224.30;105196;1261;65728;-76
2023/07/09 00:04:54;;;;;;;;;;;;;;;21.43;100.00;99223.22;104999;1263;74018;-59
2023/07/09 00:07:26;;;;;;;;;;;;;;;21.42;100.00;99218.67;104949;1259;61257;-59
2023/07/09 00:09:54;;;;;;;;;;;;;;;21.38;100.00;99210.59;105171;1258;61317;-63
2023/07/09 00:12:21;;;;;;;;;;;;;;;21.37;100.00;99206.84;104854;1261;74601;-76
2023/07/09 00:14:50;;;;;;;;;;;;;;;21.36;100.00;99208.54;104972;1261;66361;-61
2023/07/09 00:17:25;;;;;;;;;;;;;;;21.34;100.00;99205.91;105025;1261;72508;-61
2023/07/09 00:19:52;;;;;;;;;;;;;;;21.31;100.00;99206.18;104739;1263;62117;-75
2023/07/09 00:22:19;;;;;;;;;;;;;;;21.28;100.00;99198.35;104962;1260;61202;-61
2023/07/09 00:24:50;;;;;;;;;;;;;;;21.20;100.00;99191.38;105103;1261;74730;-60
2023/07/09 00:27:18;;;;;;;;;;;;;;;21.12;100.00;99181.33;105095;1257;67306;-59
2023/07/09 00:29:45;;;;;;;;;;;;;;;21.08;100.00;99172.02;105646;1257;72735;-72
2023/07/09 00:32:20;;;;;;;;;;;;;;;21.05;100.00;99176.83;104987;1264;61759;-72
2023/07/09 00:34:50;;;;;;;;;;;;;;;21.03;100.00;99185.27;105068;1262;61233;-60
2023/07/09 00:37:19;;;;;;;;;;;;;;;21.01;100.00;99173.52;104921;1262;74803;-59
2023/07/09 00:39:49;;;;;;;;;;;;;;;21.00;100.00;99175.39;105286;1259;65867;-75
2023/07/09 00:42:17;;;;;;;;;;;;;;;20.98;100.00;99180.64;104884;1263;73028;-59
2023/07/09 00:44:45;;;;;;;;;;;;;;;20.96;100.00;99176.21;104868;1273;61231;-59
2023/07/09 00:47:20;;;;;;;;;;;;;;;20.96;100.00;99177.02;104980;1257;61347;-59
2023/07/09 00:49:46;;;;;;;;;;;;;;;20.96;100.00;99170.45;105363;1260;73475;-66
2023/07/09 00:52:22;;;;;;;;;;;;;;;20.96;100.00;99165.63;104836;1266;67730;-66
2023/07/09 00:54:50;;;;;;;;;;;;;;;20.96;100.00;99165.46;104802;1263;70797;-59
2023/07/09 00:57:17;;;;;;;;;;;;;;;20.96;100.00;99157.30;105019;1257;61737;-60
2023/07/09 00:59:45;;;;;;;;;;;;;;;20.96;100.00;99153.74;105563;1257;61317;-75
2023/07/09 01:02:12;;;;;;;;;;;;;;;20.95;100.00;99150.09;105088;1258;73130;-74
2023/07/09 01:04:40;;;;;;;;;;;;;;;20.95;100.00;99144.85;104852;1266;66911;-59
2023/07/09 01:07:08;;;;;;;;;;;;;;;20.94;100.00;99145.98;104889;1263;71411;-60
2023/07/09 01:09:40;;;;;;;;;;;;;;;20.93;100.00;99147.10;104912;1263;61340;-59
2023/07/09 01:12:08;;;;;;;;;;;;;;;20.92;100.00;99139.54;105146;1262;61386;-76
2023/07/09 01:14:36;;;;;;;;;;;;;;;20.90;100.00;99142.77;104899;1261;74517;-62
2023/07/09 01:17:04;;;;;;;;;;;;;;;20.88;100.00;99145.19;104899;1266;66248;-59
2023/07/09 01:19:42;;;;;;;;;;;;;;;20.86;100.00;99133.01;104872;1262;72475;-59
2023/07/09 01:22:17;;;;;;;;;;;;;;;20.83;100.00;99133.25;105033;1260;61313;-61
2023/07/09 01:24:49;;;;;;;;;;;;;;;20.82;100.00;99128.59;104894;1257;61436;-59
2023/07/09 01:27:16;;;;;;;;;;;;;;;20.81;100.00;99128.67;104859;1264;74552;-58
2023/07/09 01:29:46;;;;;;;;;;;;;;;20.79;100.00;99125.34;105284;1257;66974;-73
2023/07/09 01:32:14;;;;;;;;;;;;;;;20.77;100.00;99122.86;104751;1257;74347;-59
2023/07/09 01:34:42;;;;;;;;;;;;;;;20.76;100.00;99122.73;104953;1261;62336;-59
2023/07/09 01:37:09;;;;;;;;;;;;;;;20.73;100.00;99121.73;105036;1261;61310;-60
2023/07/09 01:39:36;;;;;;;;;;;;;;;20.71;100.00;99120.36;104911;1263;74536;-74
2023/07/09 01:42:06;;;;;;;;;;;;;;;20.71;100.00;99117.09;105243;1262;315876;-73
2023/07/09 01:44:35;;;;;;;;;;;;;;;20.69;100.00;99116.06;104878;1261;71517;-59
2023/07/09 01:47:04;;;;;;;;;;;;;;;20.68;100.00;99109.54;105021;1261;61724;-59
2023/07/09 01:49:32;;;;;;;;;;;;;;;20.67;100.00;99109.34;104851;1263;61318;-74
2023/07/09 01:52:00;;;;;;;;;;;;;;;20.65;100.00;99105.96;104678;1263;74237;-59
2023/07/09 01:54:30;;;;;;;;;;;;;;;20.64;100.00;99104.80;104903;1262;66287;-59
2023/07/09 01:57:12;;;;;;;;;;;;;;;20.62;100.00;99106.36;104987;1260;72594;-58
2023/07/09 01:59:41;;;;;;;;;;;;;;;20.62;100.00;99106.84;104531;1264;63364;-59
2023/07/09 02:02:08;;;;;;;;;;;;;;;20.63;100.00;99107.83;104979;1258;61266;-59
2023/07/09 02:04:35;;;;;;;;;;;;;;;20.64;100.00;99106.64;105001;1260;74660;-59
2023/07/09 02:07:02;;;;;;;;;;;;;;;20.67;100.00;99108.00;104876;1261;67082;-69
2023/07/09 02:09:30;;;;;;;;;;;;;;;20.68;100.00;99110.33;104978;1257;73067;-59
2023/07/09 02:11:57;;;;;;;;;;;;;;;20.68;100.00;99109.22;105033;1260;61276;-59
2023/07/09 02:14:24;;;;;;;;;;;;;;;20.70;100.00;99104.77;104956;1261;61139;-58
2023/07/09 02:16:52;;;;;;;;;;;;;;;20.71;100.00;99106.75;104984;1260;74456;-74
2023/07/09 02:19:19;;;;;;;;;;;;;;;20.72;100.00;99111.36;105010;1261;66145;-60
2023/07/09 02:21:45;;;;;;;;;;;;;;;20.73;100.00;99114.80;105299;1260;72601;-74
2023/07/09 02:24:12;;;;;;;;;;;;;;;20.73;100.00;99113.23;104919;1268;61355;-59
2023/07/09 02:26:41;;;;;;;;;;;;;;;20.71;100.00;99113.70;104902;1263;61254;-74
2023/07/09 02:45:24;;;;;;;5.50;2.10;;;;;;;20.31;100.00;99109.80;102935;1288;613795;-61
2023/07/09 02:47:52;;;;;;;5.30;2.60;;;;;;;20.53;100.00;99112.84;104872;1272;351578;-63
2023/07/09 02:50:21;;;;;;;4.00;2.50;;;;;;;20.54;100.00;99116.91;105298;1260;59320;-61
2023/07/09 02:52:49;;;;;;;3.40;2.50;;;;;;;20.53;100.00;99117.33;105258;1263;72417;-60
2023/07/09 02:55:16;;;;;;;5.10;2.50;;;;;;;20.51;100.00;99117.88;105334;1258;65633;-60
2023/07/09 02:57:44;;;;;;;4.50;2.60;;;;;;;20.50;100.00;99114.35;105228;1263;72640;-77
2023/07/09 03:00:13;;;;;;;3.40;2.50;;;;;;;20.52;100.00;99118.97;104779;1265;62290;-60
2023/07/09 03:02:41;;;;;;;4.10;2.80;;;;;;;20.54;100.00;99113.88;104935;1263;60026;-60
2023/07/09 03:05:10;;;;;;;4.10;2.60;;;;;;;20.55;100.00;99114.71;104797;1265;72322;-60
2023/07/09 03:07:38;;;;;;;4.20;2.80;;;;;;;20.56;100.00;99110.15;105370;1263;66762;-62
2023/07/09 03:10:06;;;;;;;4.40;3.00;;;;;;;20.54;100.00;99106.38;104894;1257;73320;-60
2023/07/09 03:12:34;;;;;;;3.50;2.30;;;;;;;20.53;100.00;99107.91;104826;1272;60513;-60
2023/07/09 03:15:02;;;;;;;3.70;2.40;;;;;;;20.54;100.00;99112.30;104844;1262;59765;-62
2023/07/09 03:17:30;;;;;;;3.20;2.40;;;;;;;20.56;100.00;99106.19;105820;1258;71863;-62
2023/07/09 03:19:58;;;;;;;4.20;2.90;;;;;;;20.58;100.00;99111.67;105184;1260;66128;-68
2023/07/09 03:22:25;;;;;;;6.10;3.00;;;;;;;20.60;100.00;99108.17;105267;1259;72768;-60
2023/07/09 03:24:54;;;;;;;5.20;3.00;;;;;;;20.61;100.00;99112.73;105199;1255;61079;-62
2023/07/09 03:27:22;;;;;;;4.20;2.60;;;;;;;20.64;100.00;99107.14;105215;1259;59905;-59
2023/07/09 03:29:50;;;;;;;4.50;2.80;;;;;;;20.66;100.00;99101.23;105388;1255;72300;-74
2023/07/09 03:32:17;;;;;;;6.90;3.00;;;;;;;20.67;100.00;99099.74;104915;1260;67115;-60
2023/07/09 03:34:45;;;;;;;5.50;2.90;;;;;;;20.71;100.00;99097.71;105216;1258;73100;-60
2023/07/09 03:37:13;;;;;;;4.80;2.50;;;;;;;20.78;100.00;99097.01;105202;1254;62702;-59
2023/07/09 03:39:40;;;;;;;4.50;2.80;;;;;;;20.84;100.00;99100.34;105200;1254;60059;-59
2023/07/09 03:42:08;;;;;;;5.10;2.80;;;;;;;20.91;100.00;99103.25;105292;1260;73074;-74
2023/07/09 03:44:40;;;;;;;4.90;2.80;;;;;;;20.99;100.00;99105.82;105591;1256;65675;-60
2023/07/09 03:47:08;;;;;;;5.30;2.80;;;;;;;21.07;100.00;99105.64;105101;1259;72755;-59
2023/07/09 03:49:36;;;;;;;4.00;2.90;;;;;;;21.16;100.00;99101.63;105226;1254;61678;-59
2023/07/09 03:52:04;;;;;;;5.90;3.10;;;;;;;21.22;100.00;99096.11;105450;1261;60086;-73
2023/07/09 03:54:33;;;;;;;4.40;2.90;;;;;;;21.28;100.00;99097.86;104931;1260;72379;-59
2023/07/09 03:57:00;;;;;;;5.10;3.20;;;;;;;21.34;100.00;99097.75;105336;1254;65886;-61
2023/07/09 03:59:28;;;;;;;5.00;3.60;;;;;;;21.38;100.00;99097.66;109031;1254;72691;-60
2023/07/09 04:01:56;;;;;;;6.00;3.90;;;;;;;21.42;100.00;99101.27;109077;1255;60931;-60
2023/07/09 04:04:24;;;;;;;5.40;4.30;;;;;;;21.46;100.00;99102.34;108978;1253;58463;-74
2023/07/09 04:06:52;;;;;;;5.00;4.10;;;;;;;21.51;100.00;99093.44;109064;1254;71828;-60
2023/07/09 04:09:19;;;;;;;6.60;4.80;;;;;;;21.59;100.00;99090.67;109098;1254;67222;-61
2023/07/09 04:11:47;;;;;;;7.50;5.70;;;;;;;21.69;100.00;99088.87;109037;1254;72682;-61
2023/07/09 04:14:14;;;;;;;6.20;5.50;;;;;;;21.81;100.00;99087.92;108952;1254;61914;-73
2023/07/09 04:16:42;;;;;;;8.10;5.60;;;;;;;21.95;100.00;99089.73;109041;1254;58946;-65
2023/07/09 04:19:10;;;;;;;8.20;6.70;;;;;;;22.05;100.00;99088.22;109109;1254;73303;-64
2023/07/09 04:21:37;;;;;;;7.30;6.60;;;;;;;22.15;100.00;99086.40;109034;1254;65739;-61
2023/07/09 04:24:05;;;;;;;7.60;6.40;;;;;;;22.26;100.00;99090.71;108959;1254;71446;-81
2023/07/09 04:26:33;;;;;;;7.40;6.40;;;;;;;22.36;100.00;99089.55;109100;1254;62706;-61
2023/07/09 04:29:01;;;;;;;7.50;6.80;;;;;;;22.44;100.00;99091.13;109074;1254;60119;-61
2023/07/09 04:31:28;;;;;;;6.90;6.20;;;;;;;22.50;100.00;99090.35;109150;1254;75200;-63
2023/07/09 04:33:56;;;;;;;7.30;6.50;;;;;;;22.56;100.00;99092.42;109198;1254;65705;-61
2023/07/09 04:36:24;;;;;;;9.40;8.30;;;;;;;22.63;100.00;99091.05;109107;1254;72745;-80
2023/07/09 04:38:52;;;;;;;8.00;6.20;;;;;;;22.69;100.00;99086.10;109030;1254;62315;-63
2023/07/09 04:41:20;;;;;;;7.10;6.40;;;;;;;22.73;100.00;99088.38;109088;1254;58842;-61
2023/07/09 04:43:47;;;;;;;7.50;6.70;;;;;;;22.78;100.00;99087.70;109120;1254;71812;-63
2023/07/09 04:46:15;;;;;;;7.40;6.30;;;;;;;22.85;100.00;99089.71;109062;1253;66954;-61
2023/07/09 04:48:43;;;;;;;7.10;6.40;;;;;;;22.92;100.00;99085.46;108997;1254;71485;-72
2023/07/09 04:51:10;;;;;;;7.10;5.20;;;;;;;22.97;100.00;99083.79;109103;1254;61736;-61
2023/07/09 04:53:38;;;;;;;6.80;6.00;;;;;;;23.02;100.00;99082.10;109083;1254;60097;-61
2023/07/09 04:56:05;;;;;;;7.10;6.30;;;;;;;23.12;100.00;99083.36;109063;1254;72857;-65
2023/07/09 04:58:34;;;;;;;7.00;6.10;;;;;;;23.23;100.00;99086.56;108975;1254;65875;-79
2023/07/09 05:01:01;;;;;;;6.10;5.60;;;;;;;23.30;100.00;99084.40;109119;1253;73294;-64
2023/07/09 05:03:29;;;;;;;6.90;6.20;;;;;;;23.34;100.00;99078.91;109096;1254;60492;-64
2023/07/09 05:05:57;;;;;;;8.30;6.50;;;;;;;23.39;100.00;99069.14;109070;1254;60152;-65
2023/07/09 05:08:24;;;;;;;7.00;6.20;;;;;;;23.41;100.00;99071.00;109046;1254;71817;-72
2023/07/09 05:10:52;;;;;;;7.10;6.40;;;;;;;23.48;100.00;99069.63;109021;1254;65623;-77
2023/07/09 05:13:20;;;;;;;7.70;6.90;;;;;;;23.57;100.00;99065.95;109091;1254;73210;-62
2023/07/09 05:15:48;;;;;;;7.80;7.00;;;;;;;23.65;100.00;99067.38;109090;1252;61760;-65
2023/07/09 05:18:16;;;;;;;8.80;6.70;;;;;;;23.74;100.00;99058.32;109083;1254;60035;-71
2023/07/09 05:20:46;;;;;;;8.10;7.20;;;;;;;23.81;100.00;99055.88;109038;1254;73764;-63
2023/07/09 05:23:14;;;;;;;8.70;7.50;;;;;;;23.88;100.00;99047.57;109038;1254;68263;-64
2023/07/09 05:25:41;;;;;;;8.50;7.70;;;;;;;23.97;100.00;99046.14;109095;1253;73611;-73
2023/07/09 05:28:09;;;;;;;9.10;7.40;;;;;;;24.08;100.00;99034.95;109110;1254;61739;-63
2023/07/09 05:30:36;;;;;;;7.70;7.00;;;;;;;24.18;100.00;99035.19;109015;1254;60024;-79
2023/07/09 05:33:04;;;;;;;8.30;7.50;;;;;;;24.30;100.00;99035.21;109025;1254;72211;-64
2023/07/09 05:35:31;;;;;;;8.30;7.50;;;;;;;24.40;100.00;99029.99;109078;1254;66861;-65
2023/07/09 05:37:59;;;;;;;9.90;8.30;;;;;;;24.47;100.00;99029.52;109064;1254;72685;-65
2023/07/09 05:40:26;;;;;;;8.70;7.80;;;;;;;24.55;100.00;99022.98;109095;1254;58927;-72
2023/07/09 05:42:54;;;;;;;8.40;7.70;;;;;;;24.67;100.00;99020.59;109070;1254;60159;-65
2023/07/09 05:45:22;;;;;;;9.90;7.40;;;;;;;24.78;100.00;99016.13;109057;1254;73585;-64
2023/07/09 05:47:49;;;;;;;7.90;7.20;;;;;;;24.85;100.00;99012.90;109096;1253;65821;-69
2023/07/09 05:50:17;;;;;;;8.50;7.70;;;;;;;24.93;100.00;99007.35;109080;1254;71445;-65
2023/07/09 05:52:44;;;;;;;8.60;7.60;;;;;;;24.99;100.00;99003.29;109014;1254;59349;-78
2023/07/09 05:55:12;;;;;;;9.70;7.60;;;;;;;25.08;100.00;98998.55;109001;1254;60171;-64
2023/07/09 05:57:40;;;;;;;7.90;7.20;;;;;;;25.24;100.00;98993.02;109056;1253;71766;-65
2023/07/09 06:00:08;;;;;;;7.80;7.10;;;;;;;25.52;100.00;98991.69;109068;1254;67052;-65
2023/07/09 06:02:42;;;;;;;7.50;6.80;;;;;;;25.79;100.00;98987.66;109025;1254;72747;-65
2023/07/09 06:05:11;;;;;;;7.60;6.80;;;;;;;25.98;100.00;98985.71;109022;1254;59002;-66
2023/07/09 06:07:38;;;;;;;7.70;6.90;;;;;;;26.02;100.00;98977.73;109032;1254;58972;-64
2023/07/09 06:10:07;;;;;;;8.40;7.70;;;;;;;25.94;100.00;98972.38;109030;1254;73125;-66
2023/07/09 06:12:35;;;;;;;8.00;7.30;;;;;;;25.91;100.00;98974.71;108959;1254;66545;-64
2023/07/09 06:15:03;;;;;;;8.00;7.30;;;;;;;25.84;100.00;98965.32;108985;1254;73319;-64
2023/07/09 06:17:31;;;;;;;8.90;7.50;;;;;;;25.75;100.00;98965.48;109082;1254;58894;-64
2023/07/09 06:19:59;;;;;;;8.70;7.90;;;;;;;25.75;100.00;98964.98;109035;1254;60110;-65
2023/07/09 06:22:26;;;;;;;8.60;7.80;;;;;;;25.86;100.00;98968.30;109084;1254;72197;-72
2023/07/09 06:24:54;;;;;;;8.90;7.30;;;;;;;25.97;100.00;98969.51;109037;1254;66226;-67
2023/07/09 06:27:21;;;;;;;7.80;7.10;;;;;;;26.05;100.00;98967.59;109093;1254;72758;-66
2023/07/09 06:29:49;;;;;;;8.50;7.70;;;;;;;26.17;100.00;98972.05;109018;1254;58889;-65
2023/07/09 06:32:17;;;;;;;8.60;7.40;;;;;;;26.29;100.00;98974.31;109056;1254;58904;-65
2023/07/09 06:34:45;;;;;;;8.00;7.20;;;;;;;26.46;100.00;98968.27;108944;1254;73130;-76
2023/07/09 06:37:12;;;;;;;7.60;6.80;;;;;;;26.59;100.00;98967.02;109065;1254;66995;-65
2023/07/09 06:39:40;;;;;;;9.00;8.20;;;;;;;26.65;100.00;98969.45;109044;1254;72421;-65
2023/07/09 06:42:08;;;;;;;8.50;7.80;;;;;;;26.65;100.00;98965.93;109100;1254;58286;-67
2023/07/09 06:44:50;;;;;;;7.60;6.90;;;;;;;26.62;100.00;98960.18;108870;1255;59634;-65
2023/07/09 06:47:17;;;;;;;9.10;8.20;;;;;;;26.69;100.00;98965.27;109111;1254;73266;-64
2023/07/09 06:49:45;;;;;;;9.60;7.90;;;;;;;26.86;100.00;98969.61;109076;1254;66198;-65
2023/07/09 06:52:12;;;;;;;8.40;7.30;;;;;;;26.98;100.00;98971.27;108956;1255;73578;-73
2023/07/09 06:54:40;;;;;;;8.30;7.50;;;;;;;26.99;100.00;98972.88;109063;1254;60790;-64
2023/07/09 06:57:08;;;;;;;8.80;7.50;;;;;;;26.93;100.00;98970.86;109062;1254;60555;-63
2023/07/09 06:59:35;;;;;;;7.50;6.80;;;;;;;26.71;100.00;98973.82;109006;1254;74077;-65
2023/07/09 07:02:03;;;;;;;8.90;7.70;;;;;;;26.52;100.00;98971.86;108978;1254;65632;-65
2023/07/09 07:04:31;;;;;;;7.50;6.80;;;;;;;26.45;100.00;98971.30;109036;1254;73221;-70
2023/07/09 07:06:58;;;;;;;8.70;7.50;;;;;;;26.42;100.00;98966.30;109077;1253;60962;-61
2023/07/09 07:09:26;;;;;;;8.20;7.40;;;;;;;26.32;100.00;98969.25;109038;1254;60128;-61
2023/07/09 07:11:54;;;;;;;8.00;7.20;;;;;;;26.20;100.00;98973.63;108999;1254;73999;-71
2023/07/09 07:14:21;;;;;;;8.50;7.50;;;;;;;26.01;100.00;98980.59;109007;1254;65878;-71
2023/07/09 07:16:50;;;;;;;8.60;7.50;;;;;;;25.82;100.00;98981.61;108946;1254;72594;-61
2023/07/09 07:19:17;;;;;;;8.60;7.60;;;;;;;25.65;100.00;98983.50;109085;1254;60666;-61
2023/07/09 07:21:45;;;;;;;8.00;7.20;;;;;;;25.47;100.00;98984.53;108944;1254;58833;-61
2023/07/09 07:24:12;;;;;;;7.90;7.10;;;;;;;25.28;100.00;98986.58;109068;1253;74389;-70
2023/07/09 07:26:40;;;;;;;8.20;7.40;;;;;;;25.16;100.00;98986.58;109023;1255;65594;-63
2023/07/09 07:29:07;;;;;;;10.50;7.50;;;;;;;25.11;100.00;98988.61;109120;1254;73339;-62
2023/07/09 07:31:35;;;;;;;7.70;7.00;;;;;;;25.10;100.00;98993.74;109083;1254;60174;-62
2023/07/09 07:34:03;;;;;;;7.90;7.20;;;;;;;25.15;100.00;98990.32;109075;1253;60111;-63
2023/07/09 07:36:30;;;;;;;8.20;7.50;;;;;;;25.14;100.00;98990.50;109042;1253;74089;-66
2023/07/09 07:39:02;;;;;;;8.30;6.80;;;;;;;25.10;100.00;98989.97;109082;1253;67502;-62
2023/07/09 07:41:30;;;;;;;7.60;6.90;;;;;;;25.09;100.00;98994.05;109214;1253;72807;-62
2023/07/09 07:43:57;;;;;;;8.40;7.60;;;;;;;25.05;100.00;98996.00;109169;1252;60275;-64
2023/07/09 07:46:25;;;;;;;7.90;7.10;;;;;;;25.07;100.00;98996.48;109235;1253;60022;-63
2023/07/09 07:48:53;;;;;;;7.90;7.10;;;;;;;25.04;100.00;99000.73;109318;1253;72598;-62
2023/07/09 07:51:22;;;;;;;7.90;7.10;;;;;;;24.93;100.00;99001.17;109355;1254;66934;-63
2023/07/09 07:53:49;;;;;;;7.80;7.10;;;;;;;24.87;100.00;99007.73;109306;1252;71695;-71
2023/07/09 07:56:17;;;;;;;11.40;7.20;;;;;;;24.83;100.00;99016.15;109291;1253;60039;-64
2023/07/09 07:58:44;;;;;;;8.60;7.60;;;;;;;24.83;100.00;99017.55;109304;1252;60782;-62
2023/07/09 08:01:12;;;;;;;7.60;6.40;;;;;;;24.80;100.00;99017.80;109329;1252;73931;-62
2023/07/09 08:03:40;;;;;;;8.40;7.40;;;;;;;24.80;100.00;99020.52;109305;1252;66950;-64
2023/07/09 08:06:07;;;;;;;8.50;7.30;;;;;;;24.77;100.00;99021.39;109264;1252;71442;-69
2023/07/09 08:08:36;;;;;;;8.10;7.40;;;;;;;24.69;100.00;99024.27;109191;1253;59741;-61
2023/07/09 08:11:05;;;;;;;8.40;7.50;;;;;;;24.62;100.00;99029.94;109163;1253;58738;-62
2023/07/09 08:13:37;;;;;;;7.30;6.60;;;;;;;24.52;100.00;99036.63;108960;1253;73071;-64
2023/07/09 08:16:05;;;;;;;9.40;7.10;;;;;;;24.40;100.00;99040.37;109068;1253;66903;-65
2023/07/09 08:18:34;;;;;;;7.70;7.00;;;;;;;24.33;100.00;99040.80;109088;1253;72826;-64
2023/07/09 08:21:02;;;;;;;7.90;7.20;;;;;;;24.23;100.00;99048.09;109140;1253;60205;-62
2023/07/09 08:23:30;;;;;;;9.70;7.60;;;;;;;24.14;100.00;99049.45;109109;1253;58824;-62
2023/07/09 08:25:58;;;;;;;7.60;6.90;;;;;;;24.03;100.00;99061.52;109164;1253;73972;-73
2023/07/09 08:28:27;;;;;;;9.00;7.20;;;;;;;23.91;100.00;99064.83;109069;1253;67208;-69
2023/07/09 08:30:54;;;;;;;7.20;6.50;;;;;;;23.78;100.00;99063.39;109120;1253;72734;-62
2023/07/09 08:33:23;;;;;;;7.70;7.00;;;;;;;23.68;100.00;99064.73;109123;1253;61761;-62
2023/07/09 08:35:50;;;;;;;7.70;7.00;;;;;;;23.61;100.00;99067.89;109082;1254;58853;-61
2023/07/09 08:38:18;;;;;;;7.60;6.80;;;;;;;23.55;100.00;99070.56;109042;1254;74525;-70
2023/07/09 08:40:57;;;;;;;7.00;6.40;;;;;;;23.47;100.00;99072.80;109124;1254;65702;-61
2023/07/09 08:43:49;;;;;;;8.10;7.30;;;;;;;23.44;100.00;99067.85;108928;1254;71899;-62
2023/07/09 08:46:30;;;;;;;7.10;6.40;;;;;;;23.39;100.00;99072.79;109109;1254;61524;-63
2023/07/09 08:48:57;;;;;;;8.10;7.30;;;;;;;23.35;100.00;99079.05;108963;1253;59789;-63
2023/07/09 08:51:40;;;;;;;8.20;7.40;;;;;;;23.30;100.00;99077.92;109140;1253;73602;-61
2023/07/09 08:54:25;;;;;;;7.80;7.00;;;;;;;23.25;100.00;99085.71;109094;1253;65520;-61
2023/07/09 08:57:00;;;;;;;9.00;6.80;;;;;;;23.18;100.00;99084.36;108976;1253;72815;-61
2023/07/09 08:59:28;;;;;;;7.80;6.70;;;;;;;23.14;100.00;99091.79;109107;1253;62527;-60
2023/07/09 09:01:58;;;;;;;9.50;6.90;;;;;;;23.08;100.00;99094.39;109148;1253;60092;-61
2023/07/09 09:04:30;;;;;;;;;;;;;;;23.00;100.00;99095.75;109130;1253;73909;-61
2023/07/09 09:07:40;;;;;;;7.50;6.80;;;;;;;22.95;100.00;99096.27;109174;1253;66351;-75
2023/07/09 09:10:42;;;;;;;7.70;6.70;;;;;;;22.89;100.00;99098.91;108967;1253;71126;-59
2023/07/09 09:13:12;;;;;;;9.30;6.90;;;;;;;22.85;100.00;99102.31;109087;1253;62090;-59
2023/07/09 09:15:42;;;;;;;8.40;6.80;;;;;;;22.87;100.00;99105.03;109103;1253;58387;-73
2023/07/09 09:18:21;;;;;;;7.90;7.10;;;;;;;22.87;100.00;99105.09;109060;1255;73999;-60
2023/07/09 09:21:13;;;;;;;7.30;6.60;;;;;;;22.84;100.00;99103.43;109156;1253;65876;-59
2023/07/09 09:24:02;;;;;;;7.90;7.00;;;;;;;22.81;100.00;99101.27;109045;1253;72642;-60
2023/07/09 09:26:34;;;;;;;8.20;7.40;;;;;;;22.77;100.00;99098.78;108962;1253;61914;-59
2023/07/09 09:29:09;;;;;;;8.10;7.20;;;;;;;22.78;100.00;99099.98;109192;1253;58625;-61
2023/07/09 09:31:36;;;;;;;7.80;7.10;;;;;;;22.83;100.00;99101.38;108889;1258;73548;-60
2023/07/09 09:34:05;;;;;;;8.60;7.80;;;;;;;22.94;100.00;99101.05;109121;1253;66196;-61
2023/07/09 09:36:32;;;;;;;8.40;7.00;;;;;;;23.06;100.00;99101.54;109115;1253;72744;-59
2023/07/09 09:39:01;;;;;;;8.00;7.20;;;;;;;23.11;100.00;99097.79;108908;1253;61769;-77
2023/07/09 09:41:33;;;;;;;7.70;6.90;;;;;;;23.06;100.00;99096.91;109100;1258;60430;-63
2023/07/09 09:44:02;;;;;;;7.50;6.80;;;;;;;23.03;100.00;99097.14;109118;1253;74358;-66
2023/07/09 09:46:31;;;;;;;7.20;6.50;;;;;;;22.99;100.00;99096.56;109077;1254;66153;-59
2023/07/09 09:48:59;;;;;;;7.70;6.50;;;;;;;22.95;100.00;99093.73;108974;1254;72588;-74
2023/07/09 09:51:27;;;;;;;7.10;6.40;;;;;;;22.88;100.00;99092.73;108881;1253;61715;-59
2023/07/09 09:54:00;;;;;;;6.80;6.10;;;;;;;22.83;100.00;99090.00;109215;1253;58776;-59
2023/07/09 09:56:33;;;;;;;7.70;6.80;;;;;;;22.72;100.00;99085.58;109130;1254;73838;-59
2023/07/09 09:59:02;;;;;;;7.40;6.70;;;;;;;22.63;100.00;99086.70;109104;1254;65769;-60
2023/07/09 10:01:31;;;;;;;7.20;6.50;;;;;;;22.56;100.00;99086.42;109107;1254;72712;-59
2023/07/09 10:03:59;;;;;;;7.00;6.30;;;;;;;22.54;100.00;99093.66;109033;1254;61769;-59
2023/07/09 10:06:34;;;;;;;8.00;6.10;;;;;;;22.53;100.00;99094.41;109095;1254;59145;-59
2023/07/09 10:09:12;;;;;;;7.30;6.50;;;;;;;22.52;100.00;99101.04;108907;1254;73966;-73
2023/07/09 10:11:46;;;;;;;7.80;7.00;;;;;;;22.51;100.00;99106.38;108939;1254;67054;-59
2023/07/09 10:14:34;;;;;;;7.80;7.10;;;;;;;22.54;100.00;99109.23;108999;1254;72772;-59
2023/07/09 10:17:11;;;;;;;8.50;7.20;;;;;;;22.54;100.00;99113.45;109069;1253;62454;-59
2023/07/09 10:19:52;;;;;;;8.40;7.50;;;;;;;22.49;100.00;99116.92;109194;1253;58809;-60
2023/07/09 10:22:59;;;;;;;8.70;6.60;;;;;;;22.45;100.00;99116.80;109131;1253;72576;-61
2023/07/09 10:25:41;;;;;;;6.80;6.20;;;;;;;22.45;100.00;99124.04;109052;1254;66191;-60
2023/07/09 10:28:42;;;;;;;7.60;6.80;;;;;;;22.35;100.00;99126.73;108917;1256;72714;-59
2023/07/09 10:31:17;;;;;;;7.20;6.50;;;;;;;22.23;100.00;99129.83;109120;1254;61731;-59
2023/07/09 10:33:53;;;;;;;7.00;6.30;;;;;;;22.18;100.00;99133.36;108957;1254;60092;-65
2023/07/09 10:36:43;;;;;;;7.30;6.60;;;;;;;22.13;100.00;99133.88;108997;1254;73925;-61
2023/07/09 10:39:24;;;;;;;6.90;6.30;;;;;;;22.04;100.00;99139.14;109013;1254;67515;-64
2023/07/09 10:41:52;;;;;;;6.60;6.00;;;;;;;21.94;100.00;99136.56;109016;1254;72684;-63
2023/07/09 10:44:25;;;;;;;7.10;6.40;;;;;;;21.85;100.00;99141.13;108920;1258;62145;-59
2023/07/09 10:46:55;;;;;;;6.90;5.70;;;;;;;21.77;100.00;99143.40;108985;1254;58811;-60
2023/07/09 10:49:22;;;;;;;5.70;5.20;;;;;;;21.70;100.00;99145.98;108869;1253;73925;-73
2023/07/09 10:52:04;;;;;;;6.60;6.00;;;;;;;21.68;100.00;99153.75;108944;1254;67114;-59
2023/07/09 10:54:34;;;;;;;7.20;6.50;;;;;;;21.66;100.00;99158.81;108902;1254;72729;-72
2023/07/09 10:57:25;;;;;;;6.60;6.00;;;;;;;21.64;100.00;99156.17;109003;1254;61726;-60
2023/07/09 10:59:53;;;;;;;6.40;5.80;;;;;;;21.63;100.00;99150.25;109002;1253;58688;-59
2023/07/09 11:02:34;;;;;;;7.10;6.30;;;;;;;21.62;100.00;99150.52;108991;1253;74310;-59
2023/07/09 11:05:04;;;;;;;7.00;6.30;;;;;;;21.62;100.00;99151.95;109062;1253;67286;-59
2023/07/09 11:07:40;;;;;;;8.70;6.10;;;;;;;21.58;100.00;99158.58;109075;1256;72748;-58
2023/07/09 11:10:18;;;;;;;6.30;5.70;;;;;;;21.57;100.00;99153.77;109021;1253;61815;-74
2023/07/09 11:12:49;;;;;;;6.50;5.80;;;;;;;21.60;100.00;99160.52;108994;1253;58804;-59
2023/07/09 11:15:31;;;;;;;6.10;5.50;;;;;;;21.59;100.00;99164.25;109093;1253;72684;-60
2023/07/09 11:17:59;;;;;;;;;;;;;;;21.52;100.00;99164.42;109090;1254;67501;-64
2023/07/09 11:20:41;;;;;;;6.30;5.70;;;;;;;21.50;100.00;99166.09;109104;1253;72678;-69
2023/07/09 11:23:21;;;;;;;6.00;5.40;;;;;;;21.51;100.00;99165.08;109194;1253;60468;-59
2023/07/09 11:26:08;;;;;;;5.90;5.20;;;;;;;21.53;100.00;99167.39;108934;1254;60848;-59
2023/07/09 11:28:37;;;;;;;7.90;5.90;;;;;;;21.53;100.00;99165.95;108953;1253;74395;-60
2023/07/09 11:31:20;;;;;;;6.30;5.70;;;;;;;21.50;100.00;99166.81;108929;1254;65865;-71
2023/07/09 11:33:56;;;;;;;6.10;5.50;;;;;;;21.54;100.00;99164.73;108916;1254;72750;-59
2023/07/09 11:36:26;;;;;;;6.30;5.70;;;;;;;21.53;100.00;99165.05;109113;1254;60844;-59
2023/07/09 11:38:53;;;;;;;6.90;5.60;;;;;;;21.54;100.00;99160.70;109085;1254;60126;-59
2023/07/09 11:41:41;;;;;;;5.40;4.60;;;;;;;21.54;100.00;99160.16;109032;1253;73853;-70
2023/07/09 11:44:09;;;;;;;5.80;5.30;;;;;;;21.60;100.00;99158.45;109081;1254;67017;-59
2023/07/09 11:46:43;;;;;;;5.50;4.60;;;;;;;21.64;100.00;99154.77;109017;1255;72649;-68
2023/07/09 11:49:10;;;;;;;4.80;4.30;;;;;;;21.63;100.00;99155.41;108913;1256;61787;-58
2023/07/09 11:51:45;;;;;;;4.90;4.40;;;;;;;21.65;100.00;99155.31;108987;1253;58721;-60
2023/07/09 11:54:15;;;;;;;5.60;4.10;;;;;;;21.65;100.00;99157.60;108940;1254;72570;-59
2023/07/09 11:56:43;;;;;;;5.00;3.70;;;;;;;21.61;100.00;99165.23;109046;1253;65677;-58
2023/07/09 11:59:11;;;;;;;4.20;3.50;;;;;;;21.59;100.00;99164.52;108884;1254;71657;-65
2023/07/09 12:01:42;;;;;;;4.00;3.30;;;;;;;21.56;100.00;99164.98;109072;1253;61134;-58
2023/07/09 12:04:17;;;;;;;3.90;3.10;;;;;;;21.52;100.00;99175.14;109045;1253;60437;-75